Diamondhead, Mississippi
Current Conditions -  °F | °C
As of 10:50 AM on Friday 31 Oct 2014 (Local Time) from KHSA Reporting Station
Clear Clear  
Wind Chill: 70°   Ceiling: Unl
Heat Index: 70°   Visibility: 10mi
Dew Point: 45°   Wind: 7mph
Humidity: 40%   Direction: 320°NW
Pressure: 30.04"   Gusts: NA
Location:  30.38°N, 89.37°W
Report Text: KHSA 311550Z 32006KT 10SM CLR 21/07 A3004
Loading
Personal Weather Stations






























Interactive Weather Map
Tropical Storm Tracking
New forecast layout! Learn more

10-Day Weather Forecast

Advertisements
Track Severe Weather on mobile